createdAt,value
2023-04-12T00:00:13.576Z,10.03
2023-04-12T00:03:10.666Z,9.97
2023-04-12T00:05:47.067Z,9.95
2023-04-12T00:08:24.664Z,9.92
2023-04-12T00:10:57.153Z,9.89
2023-04-12T00:13:29.675Z,9.85
2023-04-12T00:16:02.386Z,9.82
2023-04-12T00:18:36.214Z,9.80
2023-04-12T00:21:12.315Z,9.80
2023-04-12T00:23:45.387Z,9.79
2023-04-12T00:26:17.755Z,9.79
2023-04-12T00:28:50.489Z,9.79
2023-04-12T00:31:26.927Z,9.79
2023-04-12T00:33:59.718Z,9.79
2023-04-12T00:36:32.641Z,9.81
2023-04-12T00:39:05.758Z,9.79
2023-04-12T00:41:39.261Z,9.78
2023-04-12T00:44:12.644Z,9.75
2023-04-12T00:46:45.605Z,9.74
2023-04-12T00:49:18.885Z,9.72
2023-04-12T00:51:51.489Z,9.68
2023-04-12T00:54:25.917Z,9.65
2023-04-12T00:57:07.708Z,9.64
2023-04-12T00:59:41.005Z,9.62
2023-04-12T01:02:13.929Z,9.58
2023-04-12T01:04:50.730Z,9.54
2023-04-12T01:07:37.367Z,9.51
2023-04-12T01:10:26.279Z,9.50
2023-04-12T01:13:08.037Z,9.50
2023-04-12T01:15:56.244Z,9.47
2023-04-12T01:18:34.836Z,9.43
2023-04-12T01:21:11.698Z,9.35
2023-04-12T01:24:04.103Z,9.28
2023-04-12T01:26:45.703Z,9.22
2023-04-12T01:29:22.399Z,9.17
2023-04-12T01:31:59.700Z,9.13
2023-04-12T01:34:34.973Z,9.09
2023-04-12T01:37:08.107Z,9.05
2023-04-12T01:39:41.060Z,9.04
2023-04-12T01:42:13.704Z,9.04
2023-04-12T01:44:46.196Z,9.03
2023-04-12T01:47:19.612Z,9.04
2023-04-12T01:50:02.424Z,9.02
2023-04-12T01:52:42.717Z,8.98
2023-04-12T01:55:16.328Z,8.96
2023-04-12T01:57:51.742Z,8.95
2023-04-12T02:00:25.429Z,8.98
2023-04-12T02:03:03.348Z,9.03
2023-04-12T02:05:40.066Z,9.06
2023-04-12T02:08:15.650Z,9.00
2023-04-12T02:10:48.140Z,8.91
2023-04-12T02:13:21.703Z,8.81
2023-04-12T02:16:04.823Z,8.71
2023-04-12T02:18:59.133Z,8.55
2023-04-12T02:21:43.152Z,8.41
2023-04-12T02:24:16.630Z,8.31
2023-04-12T02:26:50.935Z,8.24
2023-04-12T02:29:24.154Z,8.19
2023-04-12T02:31:57.881Z,8.15
2023-04-12T02:34:34.397Z,8.12
2023-04-12T02:37:17.888Z,8.08
2023-04-12T02:39:50.595Z,8.07
2023-04-12T02:42:23.905Z,8.08
2023-04-12T02:44:56.535Z,8.11
2023-04-12T02:47:30.595Z,8.14
2023-04-12T02:50:04.059Z,8.15
2023-04-12T02:52:43.960Z,8.14
2023-04-12T02:55:20.450Z,8.11
2023-04-12T02:57:53.686Z,8.09
2023-04-12T03:00:27.792Z,8.04
2023-04-12T03:03:05.173Z,8.00
2023-04-12T03:05:38.155Z,7.97
2023-04-12T03:08:11.164Z,7.95
2023-04-12T03:10:48.386Z,7.93
2023-04-12T03:13:21.269Z,7.92
2023-04-12T03:15:59.843Z,7.90
2023-04-12T03:18:39.725Z,7.86
2023-04-12T03:21:12.521Z,7.85
2023-04-12T03:23:45.903Z,7.83
2023-04-12T03:26:22.586Z,7.83
2023-04-12T03:29:09.456Z,7.81
2023-04-12T03:31:43.711Z,7.79
2023-04-12T03:34:19.358Z,7.78
2023-04-12T03:36:56.757Z,7.78
2023-04-12T03:39:44.931Z,7.77
2023-04-12T03:42:31.687Z,7.75
2023-04-12T03:45:08.295Z,7.83
2023-04-12T03:47:40.948Z,7.89
2023-04-12T03:50:14.198Z,7.91
2023-04-12T03:52:51.957Z,7.92
2023-04-12T03:55:25.375Z,7.90
2023-04-12T03:58:00.212Z,7.89
2023-04-12T04:00:36.070Z,7.89
2023-04-12T04:03:13.986Z,7.88
2023-04-12T04:05:50.965Z,7.87
2023-04-12T04:08:25.137Z,7.88
2023-04-12T04:10:59.493Z,7.88
2023-04-12T04:13:36.888Z,7.87
2023-04-12T04:16:14.053Z,7.85
2023-04-12T04:18:47.011Z,7.85
2023-04-12T04:21:32.455Z,7.85
2023-04-12T04:24:07.250Z,7.83
2023-04-12T04:26:43.583Z,7.83
2023-04-12T04:29:25.809Z,7.88
2023-04-12T04:31:59.857Z,7.91
2023-04-12T04:34:32.683Z,7.88
2023-04-12T04:37:13.832Z,7.86
2023-04-12T04:39:46.850Z,7.87
2023-04-12T04:42:23.037Z,7.90
2023-04-12T04:45:14.842Z,7.88
2023-04-12T04:47:49.565Z,7.83
2023-04-12T04:50:23.049Z,7.85
2023-04-12T04:52:55.990Z,7.91
2023-04-12T04:55:31.774Z,7.93
2023-04-12T04:58:08.799Z,7.96
2023-04-12T05:00:46.158Z,7.97
2023-04-12T05:03:22.369Z,8.01
2023-04-12T05:06:01.292Z,8.01
2023-04-12T05:08:44.998Z,7.99
2023-04-12T05:11:19.675Z,8.00
2023-04-12T05:13:52.788Z,8.05
2023-04-12T05:16:28.967Z,8.09
2023-04-12T05:19:01.488Z,8.11
2023-04-12T05:21:35.998Z,8.16
2023-04-12T05:24:09.763Z,8.21
2023-04-12T05:26:42.598Z,8.27
2023-04-12T05:29:19.460Z,8.35
2023-04-12T05:31:52.061Z,8.39
2023-04-12T05:34:27.850Z,8.39
2023-04-12T05:37:01.444Z,8.40
2023-04-12T05:39:37.924Z,8.45
2023-04-12T05:42:11.392Z,8.53
2023-04-12T05:44:46.947Z,8.59
2023-04-12T05:47:41.129Z,8.64
2023-04-12T05:50:14.385Z,8.70
2023-04-12T05:52:58.394Z,8.75
2023-04-12T05:55:38.200Z,8.79
2023-04-12T05:58:22.318Z,8.83
2023-04-12T06:00:58.700Z,8.88
2023-04-12T06:03:32.519Z,8.94
2023-04-12T06:06:15.250Z,9.00
2023-04-12T06:08:55.602Z,9.05
2023-04-12T06:11:28.935Z,9.11
2023-04-12T06:14:01.576Z,9.13
2023-04-12T06:16:39.494Z,9.11
2023-04-12T06:19:13.006Z,9.16
2023-04-12T06:21:46.955Z,9.25
2023-04-12T06:24:20.154Z,9.37
2023-04-12T06:26:53.564Z,9.47
2023-04-12T06:29:26.455Z,9.54
2023-04-12T06:31:59.496Z,9.53
2023-04-12T06:34:34.071Z,9.51
2023-04-12T06:37:11.978Z,9.48
2023-04-12T06:39:44.957Z,9.54
2023-04-12T06:42:18.854Z,9.66
2023-04-12T06:44:51.665Z,9.87
2023-04-12T06:47:25.872Z,10.07
2023-04-12T06:50:00.907Z,10.16
2023-04-12T06:52:36.076Z,10.20
2023-04-12T06:55:10.636Z,10.15
2023-04-12T06:57:44.739Z,10.09
2023-04-12T07:00:30.749Z,10.06
2023-04-12T07:03:03.615Z,10.08
2023-04-12T07:05:38.945Z,10.07
2023-04-12T07:08:14.232Z,10.08
2023-04-12T07:10:56.450Z,10.07
2023-04-12T07:13:29.207Z,10.09
2023-04-12T07:16:05.910Z,10.10
2023-04-12T07:18:40.101Z,10.07
2023-04-12T07:21:17.626Z,10.06
2023-04-12T07:23:51.471Z,10.08
2023-04-12T07:26:26.287Z,10.11
2023-04-12T07:28:59.088Z,10.16
2023-04-12T07:31:38.612Z,10.19
2023-04-12T07:34:11.530Z,10.19
2023-04-12T07:36:45.159Z,10.22
2023-04-12T07:39:17.916Z,10.26
2023-04-12T07:41:52.286Z,10.27
2023-04-12T07:44:25.291Z,10.26
2023-04-12T07:46:58.001Z,10.24
2023-04-12T07:49:33.489Z,10.24
2023-04-12T07:52:08.914Z,10.31
2023-04-12T07:54:42.752Z,10.39
2023-04-12T07:57:16.150Z,10.40
2023-04-12T07:59:48.736Z,10.36
2023-04-12T08:02:26.250Z,10.31
2023-04-12T08:04:59.260Z,10.26
2023-04-12T08:07:34.621Z,10.27
2023-04-12T08:10:08.559Z,10.30
2023-04-12T08:12:41.464Z,10.36
2023-04-12T08:15:16.616Z,10.41
2023-04-12T08:17:49.462Z,10.44
2023-04-12T08:20:22.442Z,10.54
2023-04-12T08:22:56.622Z,10.61
2023-04-12T08:25:31.682Z,10.69
2023-04-12T08:28:04.997Z,10.76
2023-04-12T08:30:37.922Z,10.85
2023-04-12T08:33:10.533Z,10.95
2023-04-12T08:35:43.260Z,11.05
2023-04-12T08:38:18.125Z,11.15
2023-04-12T08:40:51.120Z,11.27
2023-04-12T08:43:27.565Z,11.38
2023-04-12T08:46:01.901Z,11.51
2023-04-12T08:48:35.018Z,11.62
2023-04-12T08:51:09.685Z,11.74
2023-04-12T08:53:42.864Z,11.83
2023-04-12T08:56:17.908Z,11.86
2023-04-12T08:58:53.876Z,11.95
2023-04-12T09:01:26.742Z,11.97
2023-04-12T09:03:59.839Z,11.95
2023-04-12T09:06:33.642Z,11.89
2023-04-12T09:09:08.305Z,11.85
2023-04-12T09:11:51.986Z,11.78
2023-04-12T09:14:26.872Z,11.76
2023-04-12T09:16:59.580Z,11.80
2023-04-12T09:19:36.522Z,11.83
2023-04-12T09:22:09.295Z,11.80
2023-04-12T09:24:53.172Z,11.76
2023-04-12T09:27:29.813Z,11.76
2023-04-12T09:30:13.296Z,11.69
2023-04-12T09:32:50.529Z,11.54
2023-04-12T09:35:37.135Z,11.44
2023-04-12T09:38:12.373Z,11.46
2023-04-12T09:40:45.137Z,11.47
2023-04-12T09:43:17.524Z,11.45
2023-04-12T09:45:50.491Z,11.49
2023-04-12T09:48:26.429Z,11.48
2023-04-12T09:51:03.142Z,11.50
2023-04-12T09:53:42.428Z,11.56
2023-04-12T09:56:21.279Z,11.64
2023-04-12T09:58:56.513Z,11.65
2023-04-12T10:01:42.310Z,11.66
2023-04-12T10:04:15.589Z,11.68
2023-04-12T10:06:52.543Z,11.71
2023-04-12T10:09:29.110Z,11.81
2023-04-12T10:12:05.945Z,11.92
2023-04-12T10:14:39.011Z,12.03
2023-04-12T10:17:14.439Z,12.10
2023-04-12T10:19:49.022Z,12.13
2023-04-12T10:22:21.841Z,12.09
2023-04-12T10:24:54.831Z,12.10
2023-04-12T10:27:33.149Z,12.13
2023-04-12T10:30:26.468Z,12.18
2023-04-12T10:33:20.558Z,12.27
2023-04-12T10:36:00.541Z,12.27
2023-04-12T10:38:48.837Z,12.36
2023-04-12T10:41:25.598Z,12.53
2023-04-12T10:44:27.591Z,12.68
2023-04-12T10:47:12.628Z,12.78
2023-04-12T10:50:25.132Z,12.82
2023-04-12T10:53:27.867Z,12.84
2023-04-12T10:56:01.078Z,12.93
2023-04-12T10:59:00.542Z,13.06
2023-04-12T11:01:40.053Z,13.23
2023-04-12T11:04:22.496Z,13.31
2023-04-12T11:07:12.311Z,13.40
2023-04-12T11:09:48.826Z,13.44
2023-04-12T11:12:33.946Z,13.43
2023-04-12T11:15:13.219Z,13.49
2023-04-12T11:18:01.052Z,13.40
2023-04-12T11:20:37.655Z,13.26
2023-04-12T11:23:12.436Z,13.21
2023-04-12T11:25:45.304Z,13.15
2023-04-12T11:28:29.688Z,13.07
2023-04-12T11:31:07.536Z,13.08
2023-04-12T11:33:42.713Z,13.13
2023-04-12T11:36:17.325Z,13.21
2023-04-12T11:39:14.610Z,13.39
2023-04-12T11:41:49.154Z,13.50
2023-04-12T11:44:22.968Z,13.43
2023-04-12T11:46:55.859Z,13.29
2023-04-12T11:49:28.830Z,13.18
2023-04-12T11:52:08.609Z,13.07
2023-04-12T11:54:44.975Z,13.05
2023-04-12T11:57:19.129Z,13.11
2023-04-12T11:59:52.624Z,13.15
2023-04-12T12:02:27.968Z,13.11
2023-04-12T12:05:04.198Z,13.06
2023-04-12T12:07:41.275Z,13.06
2023-04-12T12:10:23.945Z,13.07
2023-04-12T12:13:10.645Z,13.20
2023-04-12T12:15:48.416Z,13.43
2023-04-12T12:18:26.404Z,13.67
2023-04-12T12:21:03.901Z,13.92
2023-04-12T12:23:40.176Z,14.01
2023-04-12T12:26:22.626Z,13.79
2023-04-12T12:29:09.251Z,13.46
2023-04-12T12:31:49.390Z,13.21
2023-04-12T12:34:26.392Z,12.99
2023-04-12T12:36:59.154Z,12.85
2023-04-12T12:39:35.198Z,12.72
2023-04-12T12:42:08.247Z,12.53
2023-04-12T12:44:44.573Z,12.39
2023-04-12T12:47:17.392Z,12.44
2023-04-12T12:49:58.115Z,12.61
2023-04-12T12:52:34.036Z,12.77
2023-04-12T12:55:08.033Z,12.93
2023-04-12T12:57:43.384Z,13.14
2023-04-12T13:00:18.152Z,13.46
2023-04-12T13:02:51.080Z,13.74
2023-04-12T13:05:24.587Z,14.01
2023-04-12T13:08:07.001Z,14.26
2023-04-12T13:10:43.974Z,14.24
2023-04-12T13:13:16.750Z,14.16
2023-04-12T13:15:51.834Z,14.08
2023-04-12T13:18:27.094Z,14.00
2023-04-12T13:21:10.498Z,13.94
2023-04-12T13:23:52.383Z,13.96
2023-04-12T13:26:27.238Z,14.08
2023-04-12T13:29:03.830Z,14.08
2023-04-12T13:31:37.428Z,14.04
2023-04-12T13:34:13.014Z,13.91
2023-04-12T13:36:45.905Z,13.70
2023-04-12T13:39:21.966Z,13.53
2023-04-12T13:41:55.233Z,13.30
2023-04-12T13:44:28.618Z,13.08
2023-04-12T13:47:01.010Z,12.88
2023-04-12T13:49:36.032Z,12.76
2023-04-12T13:52:09.051Z,12.72
2023-04-12T13:54:43.432Z,12.79
2023-04-12T13:57:16.393Z,12.93
2023-04-12T13:59:49.394Z,13.11
2023-04-12T14:02:22.360Z,13.28
2023-04-12T14:05:01.793Z,13.35
2023-04-12T14:07:34.677Z,13.29
2023-04-12T14:10:09.404Z,13.18
2023-04-12T14:12:41.850Z,13.14
2023-04-12T14:15:14.955Z,13.14
2023-04-12T14:17:48.337Z,13.15
2023-04-12T14:20:24.848Z,13.17
2023-04-12T14:22:58.079Z,13.21
2023-04-12T14:25:35.294Z,13.26
2023-04-12T14:28:10.319Z,13.31
2023-04-12T14:30:45.578Z,13.34
2023-04-12T14:33:29.492Z,13.36
2023-04-12T14:36:05.162Z,13.31
2023-04-12T14:38:40.016Z,13.26
2023-04-12T14:41:14.267Z,13.18
2023-04-12T14:43:47.060Z,13.24
2023-04-12T14:46:20.279Z,13.35
2023-04-12T14:48:53.027Z,13.34
2023-04-12T14:51:26.287Z,13.16
2023-04-12T14:53:59.458Z,12.95
2023-04-12T14:56:36.467Z,12.72
2023-04-12T14:59:11.753Z,12.55
2023-04-12T15:01:45.725Z,12.42
2023-04-12T15:04:19.532Z,12.36
2023-04-12T15:06:52.413Z,12.41
2023-04-12T15:09:26.238Z,12.50
2023-04-12T15:12:02.153Z,12.59
2023-04-12T15:14:46.389Z,12.70
2023-04-12T15:17:20.139Z,12.83
2023-04-12T15:19:57.829Z,13.01
2023-04-12T15:22:30.261Z,13.18
2023-04-12T15:25:03.229Z,13.40
2023-04-12T15:27:38.923Z,13.66
2023-04-12T15:30:15.439Z,13.79
2023-04-12T15:32:48.999Z,13.90
2023-04-12T15:35:27.145Z,13.97
2023-04-12T15:38:03.082Z,13.96
2023-04-12T15:40:45.958Z,13.91
2023-04-12T15:43:23.659Z,13.78
2023-04-12T15:46:02.586Z,13.61
2023-04-12T15:48:38.989Z,13.45
2023-04-12T15:51:11.597Z,13.36
2023-04-12T15:54:05.496Z,13.29
2023-04-12T15:56:38.732Z,13.20
2023-04-12T15:59:22.007Z,13.14
2023-04-12T16:01:56.968Z,13.14
2023-04-12T16:04:33.444Z,13.23
2023-04-12T16:07:17.102Z,13.32
2023-04-12T16:09:49.584Z,13.35
2023-04-12T16:12:26.260Z,13.42
2023-04-12T16:15:10.842Z,13.53
2023-04-12T16:17:47.209Z,13.64
2023-04-12T16:20:22.159Z,13.72
2023-04-12T16:23:03.903Z,13.64
2023-04-12T16:25:37.080Z,13.50
2023-04-12T16:28:09.446Z,13.37
2023-04-12T16:30:42.123Z,13.28
2023-04-12T16:33:14.800Z,13.32
2023-04-12T16:35:50.651Z,13.43
2023-04-12T16:38:26.574Z,13.55
2023-04-12T16:41:02.486Z,13.65
2023-04-12T16:43:35.310Z,13.65
2023-04-12T16:46:09.104Z,13.62
2023-04-12T16:48:44.874Z,13.59
2023-04-12T16:51:17.808Z,13.52
2023-04-12T16:53:54.536Z,13.43
2023-04-12T16:56:28.568Z,13.28
2023-04-12T16:59:01.588Z,13.00
2023-04-12T17:01:44.264Z,12.63
2023-04-12T17:04:19.781Z,12.31
2023-04-12T17:06:52.353Z,12.00
2023-04-12T17:09:25.084Z,11.68
2023-04-12T17:12:07.761Z,11.37
2023-04-12T17:14:44.004Z,11.14
2023-04-12T17:17:19.947Z,11.11
2023-04-12T17:19:52.889Z,11.08
2023-04-12T17:22:25.600Z,11.00
2023-04-12T17:25:10.491Z,10.88
2023-04-12T17:27:43.186Z,10.76
2023-04-12T17:30:17.864Z,10.65
2023-04-12T17:32:51.872Z,10.54
2023-04-12T17:35:28.761Z,10.42
2023-04-12T17:38:04.191Z,10.30
2023-04-12T17:40:40.391Z,10.18
2023-04-12T17:43:34.231Z,10.05
2023-04-12T17:46:10.525Z,10.15
2023-04-12T17:48:54.496Z,10.48
2023-04-12T17:51:27.147Z,10.93
2023-04-12T17:54:00.928Z,10.87
2023-04-12T17:56:33.688Z,10.64
2023-04-12T17:59:17.557Z,10.39
2023-04-12T18:01:53.760Z,10.06
2023-04-12T18:04:48.499Z,9.78
2023-04-12T18:07:42.470Z,9.58
2023-04-12T18:10:26.804Z,9.37
2023-04-12T18:12:59.842Z,9.19
2023-04-12T18:15:35.671Z,9.03
2023-04-12T18:18:13.287Z,8.87
2023-04-12T18:20:49.374Z,8.69
2023-04-12T18:23:28.190Z,8.60
2023-04-12T18:26:00.879Z,8.48
2023-04-12T18:28:43.585Z,8.33
2023-04-12T18:31:21.235Z,8.22
2023-04-12T18:34:14.113Z,8.10
2023-04-12T18:36:58.397Z,7.92
2023-04-12T18:39:44.025Z,7.78
2023-04-12T18:42:37.787Z,7.63
2023-04-12T18:45:22.325Z,7.51
2023-04-12T18:48:15.844Z,7.40
2023-04-12T18:51:07.991Z,7.34
2023-04-12T18:53:54.323Z,7.31
2023-04-12T18:56:42.325Z,7.27
2023-04-12T18:59:27.700Z,7.23
2023-04-12T19:02:05.293Z,7.19
2023-04-12T19:04:51.439Z,7.15
2023-04-12T19:07:44.685Z,7.12
2023-04-12T19:10:30.950Z,7.09
2023-04-12T19:13:13.453Z,7.06
2023-04-12T19:16:08.728Z,7.01
2023-04-12T19:19:01.913Z,6.98
2023-04-12T19:21:35.577Z,6.95
2023-04-12T19:24:18.440Z,6.92
2023-04-12T19:27:11.604Z,6.88
2023-04-12T19:29:58.819Z,6.84
2023-04-12T19:32:51.979Z,6.81
2023-04-12T19:35:45.056Z,6.75
2023-04-12T19:38:43.181Z,6.71
2023-04-12T19:41:36.277Z,6.65
2023-04-12T19:44:23.273Z,6.57
2023-04-12T19:47:15.961Z,6.45
2023-04-12T19:49:56.059Z,6.35
2023-04-12T19:52:49.749Z,6.24
2023-04-12T19:55:43.502Z,6.16
2023-04-12T19:58:34.834Z,6.08
2023-04-12T20:01:17.759Z,6.01
2023-04-12T20:04:10.537Z,5.95
2023-04-12T20:07:04.984Z,5.87
2023-04-12T20:09:47.962Z,5.78
2023-04-12T20:12:29.814Z,5.71
2023-04-12T20:15:22.511Z,5.63
2023-04-12T20:18:15.916Z,5.57
2023-04-12T20:21:10.167Z,5.54
2023-04-12T20:23:55.586Z,5.50
2023-04-12T20:26:33.158Z,5.44
2023-04-12T20:29:25.924Z,5.40
2023-04-12T20:32:18.382Z,5.36
2023-04-12T20:35:13.202Z,5.30
2023-04-12T20:38:07.943Z,5.23
2023-04-12T20:41:00.643Z,5.16
2023-04-12T20:43:55.163Z,5.13
2023-04-12T20:46:49.057Z,5.09
2023-04-12T20:49:43.397Z,5.07
2023-04-12T20:52:36.585Z,5.05
2023-04-12T20:55:25.284Z,5.02
2023-04-12T20:58:09.543Z,4.98
2023-04-12T21:01:05.094Z,4.94
2023-04-12T21:03:54.633Z,4.90
2023-04-12T21:06:48.760Z,4.85
2023-04-12T21:09:41.512Z,4.79
2023-04-12T21:12:35.714Z,4.75
2023-04-12T21:15:12.648Z,4.72
2023-04-12T21:18:05.795Z,4.67
2023-04-12T21:21:04.045Z,4.62
2023-04-12T21:23:46.595Z,4.58
2023-04-12T21:26:39.541Z,4.54
2023-04-12T21:32:42.919Z,4.47
2023-04-12T21:35:36.409Z,4.44
2023-04-12T21:38:22.406Z,4.41
2023-04-12T21:41:13.147Z,4.36
2023-04-12T21:44:08.871Z,4.31
2023-04-12T21:47:01.655Z,4.27
2023-04-12T21:49:58.565Z,4.23
2023-04-12T21:52:51.391Z,4.20
2023-04-12T21:55:44.546Z,4.17
2023-04-12T21:58:30.264Z,4.16
2023-04-12T22:01:25.959Z,4.15
2023-04-12T22:04:10.027Z,4.13
2023-04-12T22:07:03.968Z,4.11
2023-04-12T22:09:49.040Z,4.06
2023-04-12T22:12:42.442Z,4.04
2023-04-12T22:15:35.894Z,4.02
2023-04-12T22:18:14.657Z,4.00
2023-04-12T22:20:51.022Z,3.97
2023-04-12T22:23:45.080Z,3.94
2023-04-12T22:26:37.781Z,3.92
2023-04-12T22:29:30.563Z,3.89
2023-04-12T22:32:23.311Z,3.89
2023-04-12T22:35:16.195Z,3.87
2023-04-12T22:38:10.013Z,3.84
2023-04-12T22:41:03.094Z,3.82
2023-04-12T22:43:49.977Z,3.80
2023-04-12T22:46:43.983Z,3.86
2023-04-12T22:49:50.410Z,4.08
2023-04-12T22:52:38.627Z,4.25
2023-04-12T22:55:22.287Z,4.28
2023-04-12T22:58:15.623Z,4.31
2023-04-12T23:00:59.342Z,4.34
2023-04-12T23:03:52.015Z,4.24
2023-04-12T23:06:41.667Z,4.12
2023-04-12T23:09:25.610Z,4.03
2023-04-12T23:12:20.465Z,3.95
2023-04-12T23:15:06.171Z,3.94
2023-04-12T23:17:51.630Z,3.92
2023-04-12T23:20:39.033Z,3.89
2023-04-12T23:23:14.511Z,3.85
2023-04-12T23:25:46.875Z,3.82
2023-04-12T23:28:40.438Z,3.77
2023-04-12T23:31:33.287Z,3.74
2023-04-12T23:34:18.980Z,3.67
2023-04-12T23:37:12.611Z,3.62
2023-04-12T23:40:05.253Z,3.57
2023-04-12T23:42:58.295Z,3.54
2023-04-12T23:45:49.966Z,3.50
2023-04-12T23:48:42.870Z,3.48
2023-04-12T23:51:36.104Z,3.47
2023-04-12T23:54:27.540Z,3.54
2023-04-12T23:57:16.296Z,3.58
